Time;durP1;ratioP1;P1;durP2;ratioP2;P2;SDS_P1;SDS_P2;PMS_P1;PMS_P2;Temp;Humidity;BMP_temperature;BMP_pressure;BME280_temperature;BME280_humidity;BME280_pressure;Samples;Min_cycle;Max_cycle;Signal;HPM_P1;HPM_P2
2022/03/05 00:01:16;;;;;;;31.83;14.52;;;1.50;99.90;;;;;;5006072;28;20076;-49
2022/03/05 00:03:42;;;;;;;28.38;14.57;;;1.50;99.90;;;;;;5007441;28;20030;-51
2022/03/05 00:06:07;;;;;;;34.78;15.38;;;1.50;99.90;;;;;;5009871;28;20441;-52
2022/03/05 00:08:33;;;;;;;38.47;14.43;;;1.50;99.90;;;;;;5010853;28;20026;-51
2022/03/05 00:10:58;;;;;;;27.88;14.20;;;1.40;99.90;;;;;;5011219;28;20044;-48
2022/03/05 00:13:24;;;;;;;34.70;15.45;;;1.50;99.90;;;;;;5010653;28;20032;-50
2022/03/05 00:15:51;;;;;;;30.67;14.05;;;1.40;99.90;;;;;;5011199;28;20034;-52
2022/03/05 00:18:17;;;;;;;36.63;15.45;;;1.40;99.90;;;;;;5011194;28;20033;-49
2022/03/05 00:20:44;;;;;;;34.00;13.63;;;1.40;99.90;;;;;;5009258;28;20034;-48
2022/03/05 00:23:10;;;;;;;40.53;14.88;;;1.40;99.90;;;;;;5012554;28;20026;-47
2022/03/05 00:25:37;;;;;;;32.90;15.90;;;1.40;99.90;;;;;;5013863;28;20454;-47
2022/03/05 00:28:02;;;;;;;30.13;14.98;;;1.30;99.90;;;;;;5013188;28;20064;-44
2022/03/05 00:30:28;;;;;;;36.72;16.00;;;1.30;99.90;;;;;;5013824;28;20060;-48
2022/03/05 00:32:53;;;;;;;33.53;14.25;;;1.20;99.90;;;;;;5013419;28;20038;-45
2022/03/05 00:35:19;;;;;;;41.38;13.55;;;1.10;99.90;;;;;;5014147;28;20025;-47
2022/03/05 00:37:45;;;;;;;33.97;15.70;;;1.10;99.90;;;;;;5013690;28;20026;-45
2022/03/05 00:40:11;;;;;;;35.03;14.63;;;1.10;99.90;;;;;;5014012;28;20029;-46
2022/03/05 00:42:36;;;;;;;32.35;15.20;;;1.10;99.90;;;;;;5013836;28;20034;-46
2022/03/05 00:45:05;;;;;;;29.48;16.38;;;1.10;99.90;;;;;;5014725;28;20113;-46
2022/03/05 00:47:31;;;;;;;37.40;16.52;;;1.10;99.90;;;;;;5014049;28;20018;-46
2022/03/05 00:49:56;;;;;;;31.95;14.60;;;1.00;99.90;;;;;;5013840;28;20028;-49
2022/03/05 00:52:22;;;;;;;27.75;13.95;;;0.90;99.90;;;;;;5013880;28;20030;-45
2022/03/05 00:54:47;;;;;;;31.15;14.57;;;0.90;99.90;;;;;;5013018;28;20018;-45
2022/03/05 00:57:13;;;;;;;30.77;14.77;;;0.90;99.90;;;;;;5013775;28;20034;-46
2022/03/05 00:59:39;;;;;;;34.65;16.50;;;0.90;99.90;;;;;;5013823;28;20395;-48
2022/03/05 01:02:05;;;;;;;34.58;16.52;;;0.90;99.90;;;;;;5013542;28;20048;-47
2022/03/05 01:04:30;;;;;;;29.27;14.27;;;0.90;99.90;;;;;;5013432;28;20493;-44
2022/03/05 01:06:56;;;;;;;35.42;14.73;;;0.80;99.90;;;;;;5013568;28;20030;-43
2022/03/05 01:09:21;;;;;;;31.52;14.63;;;0.90;99.90;;;;;;5012255;28;20032;-44
2022/03/05 01:11:47;;;;;;;32.33;15.23;;;0.90;99.90;;;;;;5013527;28;20030;-46
2022/03/05 01:14:12;;;;;;;36.20;15.38;;;0.80;99.90;;;;;;5011950;28;20737;-46
2022/03/05 01:16:38;;;;;;;29.63;14.73;;;0.80;99.90;;;;;;5013498;28;20030;-49
2022/03/05 01:19:04;;;;;;;37.75;16.60;;;0.80;99.90;;;;;;5013386;28;20033;-45
2022/03/05 01:21:29;;;;;;;33.10;14.45;;;0.90;99.90;;;;;;5013821;28;20044;-44
2022/03/05 01:23:55;;;;;;;37.58;16.35;;;0.90;99.90;;;;;;5012970;28;20030;-44
2022/03/05 01:26:21;;;;;;;35.97;15.90;;;0.80;99.90;;;;;;5011835;28;20030;-44
2022/03/05 01:28:46;;;;;;;32.65;14.35;;;0.80;99.90;;;;;;5013512;28;20110;-45
2022/03/05 01:31:13;;;;;;;37.90;15.23;;;0.80;99.90;;;;;;5013267;28;20029;-46
2022/03/05 01:33:38;;;;;;;32.97;15.63;;;0.80;99.90;;;;;;5012771;28;20030;-46
2022/03/05 01:36:04;;;;;;;31.23;14.90;;;0.80;99.90;;;;;;5013519;28;20473;-46
2022/03/05 01:38:30;;;;;;;34.75;16.05;;;0.70;99.90;;;;;;5013058;28;20025;-47
2022/03/05 01:40:55;;;;;;;30.45;14.38;;;0.70;99.90;;;;;;5013379;28;20038;-43
2022/03/05 01:43:21;;;;;;;32.22;15.13;;;0.60;99.90;;;;;;5012581;28;20536;-45
2022/03/05 01:45:46;;;;;;;33.65;15.45;;;0.60;99.90;;;;;;5012894;28;20107;-44
2022/03/05 01:48:12;;;;;;;37.83;16.17;;;0.60;99.90;;;;;;5012867;28;20030;-44
2022/03/05 01:50:37;;;;;;;32.30;14.60;;;0.60;99.90;;;;;;5012716;28;20029;-42
2022/03/05 01:53:03;;;;;;;32.63;14.70;;;0.60;99.90;;;;;;5011977;28;20021;-43
2022/03/05 01:55:29;;;;;;;38.88;16.58;;;0.60;99.90;;;;;;5012943;28;20108;-47
2022/03/05 01:57:55;;;;;;;33.65;15.52;;;0.60;99.90;;;;;;5012725;28;20084;-45
2022/03/05 02:00:21;;;;;;;39.15;17.05;;;0.60;99.90;;;;;;5012567;28;20029;-43
2022/03/05 02:02:46;;;;;;;36.85;15.30;;;0.60;99.90;;;;;;5012376;28;20100;-41
2022/03/05 02:05:13;;;;;;;38.55;17.48;;;0.50;99.90;;;;;;5012332;28;20037;-45
2022/03/05 02:07:39;;;;;;;35.83;15.13;;;0.50;99.90;;;;;;5012500;28;20046;-43
2022/03/05 02:10:06;;;;;;;35.55;16.23;;;0.40;99.90;;;;;;5011109;28;20056;-44
2022/03/05 02:12:34;;;;;;;33.92;14.80;;;0.40;99.90;;;;;;5012332;28;20105;-43
2022/03/05 02:15:00;;;;;;;38.53;15.10;;;0.40;99.90;;;;;;5012060;28;20033;-45
2022/03/05 02:17:27;;;;;;;34.05;16.80;;;0.40;99.90;;;;;;5012497;28;20072;-44
2022/03/05 02:19:53;;;;;;;42.35;17.00;;;0.40;99.90;;;;;;5012298;28;20034;-46
2022/03/05 02:22:19;;;;;;;39.47;17.20;;;0.40;99.90;;;;;;5012167;28;20425;-44
2022/03/05 02:24:47;;;;;;;37.25;16.48;;;0.30;99.90;;;;;;5011936;28;20022;-45
2022/03/05 02:27:12;;;;;;;38.38;17.02;;;0.30;99.90;;;;;;5012198;28;20105;-45
2022/03/05 02:29:38;;;;;;;36.90;16.83;;;0.30;99.90;;;;;;5010695;28;20105;-43
2022/03/05 02:32:04;;;;;;;34.10;17.20;;;0.40;99.90;;;;;;5012130;28;20026;-44
2022/03/05 02:34:30;;;;;;;34.38;16.55;;;0.30;99.90;;;;;;5010581;28;20022;-44
2022/03/05 02:36:56;;;;;;;36.47;14.75;;;0.30;99.90;;;;;;5012098;28;20159;-42
2022/03/05 02:39:25;;;;;;;42.08;15.85;;;0.30;99.90;;;;;;5012166;28;20034;-44
2022/03/05 02:41:52;;;;;;;37.45;16.00;;;0.30;99.90;;;;;;5012400;28;20408;-43
2022/03/05 02:44:18;;;;;;;40.35;15.68;;;0.30;99.90;;;;;;5011582;28;20034;-46
2022/03/05 02:46:43;;;;;;;38.00;15.32;;;0.30;99.90;;;;;;5012218;28;20516;-44
2022/03/05 02:49:09;;;;;;;35.95;15.25;;;0.30;99.90;;;;;;5010596;28;20018;-45
2022/03/05 02:51:35;;;;;;;40.88;16.73;;;0.30;99.90;;;;;;5012163;28;20026;-46
2022/03/05 02:54:01;;;;;;;39.47;15.57;;;0.30;99.90;;;;;;5011252;28;20025;-46
2022/03/05 02:56:26;;;;;;;37.50;17.83;;;0.30;99.90;;;;;;5011783;28;20026;-46
2022/03/05 02:58:53;;;;;;;35.60;16.35;;;0.40;99.90;;;;;;5010504;28;20030;-44
2022/03/05 03:01:19;;;;;;;39.97;17.20;;;0.30;99.90;;;;;;5011609;28;20034;-45
2022/03/05 03:03:44;;;;;;;38.10;17.58;;;0.20;99.90;;;;;;5011443;28;20033;-44
2022/03/05 03:06:10;;;;;;;35.65;16.00;;;0.20;99.90;;;;;;5011770;28;20049;-44
2022/03/05 03:08:35;;;;;;;33.38;15.27;;;0.20;99.90;;;;;;5011710;28;20026;-43
2022/03/05 03:11:01;;;;;;;33.58;16.30;;;0.20;99.90;;;;;;5011595;28;20022;-45
2022/03/05 03:13:26;;;;;;;41.47;16.25;;;0.20;99.90;;;;;;5011321;28;20018;-46
2022/03/05 03:15:52;;;;;;;43.53;17.85;;;0.10;99.90;;;;;;5010265;28;20029;-44
2022/03/05 03:18:18;;;;;;;38.55;16.05;;;0.10;99.90;;;;;;5010340;28;20034;-44
2022/03/05 03:20:44;;;;;;;33.88;15.07;;;0.10;99.90;;;;;;5011656;28;20413;-46
2022/03/05 03:23:10;;;;;;;42.95;16.70;;;0.10;99.90;;;;;;5011200;28;20120;-42
2022/03/05 03:25:38;;;;;;;37.13;16.55;;;0.10;99.90;;;;;;5011396;28;20212;-45
2022/03/05 03:28:04;;;;;;;34.00;16.60;;;0.10;99.90;;;;;;5011523;28;20025;-44
2022/03/05 03:30:30;;;;;;;40.13;18.35;;;0.00;99.90;;;;;;5011417;28;20026;-48
2022/03/05 03:32:56;;;;;;;36.08;17.02;;;0.00;99.90;;;;;;5011132;28;20526;-42
2022/03/05 03:35:22;;;;;;;37.10;16.23;;;0.00;99.90;;;;;;5011510;28;20254;-44
2022/03/05 03:37:47;;;;;;;42.15;18.20;;;0.00;99.90;;;;;;5011485;28;20029;-43
2022/03/05 03:40:15;;;;;;;38.33;17.55;;;0.00;99.90;;;;;;5012434;28;20025;-43
2022/03/05 03:42:41;;;;;;;43.83;17.67;;;-0.10;99.90;;;;;;5015054;28;20061;-46
2022/03/05 03:45:09;;;;;;;39.17;16.65;;;0.00;99.90;;;;;;5014816;28;20018;-43
2022/03/05 03:47:35;;;;;;;36.28;17.83;;;-0.10;99.90;;;;;;5015117;28;20017;-45
2022/03/05 03:50:01;;;;;;;36.30;16.55;;;-0.10;99.90;;;;;;5014979;28;20545;-43
2022/03/05 03:52:27;;;;;;;43.95;18.23;;;-0.10;99.90;;;;;;5014994;28;20112;-44
2022/03/05 03:54:52;;;;;;;36.97;16.42;;;-0.10;99.90;;;;;;5014263;28;20061;-43
2022/03/05 03:57:18;;;;;;;34.83;15.23;;;-0.10;99.90;;;;;;5014833;28;20031;-46
2022/03/05 03:59:46;;;;;;;39.53;17.65;;;-0.20;99.90;;;;;;5014835;28;20117;-43
2022/03/05 04:02:11;;;;;;;36.92;16.45;;;-0.10;99.90;;;;;;5014789;28;20084;-43
2022/03/05 04:04:37;;;;;;;41.90;16.58;;;-0.10;99.90;;;;;;5014550;28;20018;-44
2022/03/05 04:09:47;;;;;;;35.67;16.38;;;-0.10;99.90;;;;;;5014856;28;20029;-42
2022/03/05 04:12:12;;;;;;;36.88;15.77;;;-0.20;99.90;;;;;;5014868;28;20030;-47
2022/03/05 04:14:38;;;;;;;40.35;19.70;;;-0.10;99.90;;;;;;5014271;28;20014;-47
2022/03/05 04:17:05;;;;;;;43.88;18.50;;;-0.10;99.90;;;;;;5014492;28;20108;-44
2022/03/05 04:19:30;;;;;;;36.08;16.90;;;-0.20;99.90;;;;;;5014476;28;20091;-42
2022/03/05 04:21:56;;;;;;;34.47;17.05;;;-0.20;99.90;;;;;;5014407;28;20034;-43
2022/03/05 04:24:21;;;;;;;39.30;17.27;;;-0.20;99.90;;;;;;5014033;28;20411;-45
2022/03/05 04:26:46;;;;;;;44.55;18.08;;;-0.20;99.90;;;;;;5014287;28;20482;-46
2022/03/05 04:29:12;;;;;;;36.72;18.83;;;-0.20;99.90;;;;;;5014839;28;20044;-44
2022/03/05 04:31:37;;;;;;;38.78;17.02;;;-0.20;99.90;;;;;;5014587;28;20030;-45
2022/03/05 04:34:03;;;;;;;34.45;17.00;;;-0.30;99.90;;;;;;5013843;28;20026;-44
2022/03/05 04:36:28;;;;;;;38.00;17.58;;;-0.20;99.90;;;;;;5014132;28;20084;-44
2022/03/05 04:38:54;;;;;;;39.85;17.38;;;-0.30;99.90;;;;;;5014018;28;20084;-44
2022/03/05 04:41:19;;;;;;;41.40;18.50;;;-0.20;99.90;;;;;;5014228;28;20026;-43
2022/03/05 04:43:47;;;;;;;34.47;17.45;;;-0.20;99.90;;;;;;5013572;28;20073;-47
2022/03/05 04:46:12;;;;;;;38.15;17.83;;;-0.30;99.90;;;;;;5014086;28;20422;-46
2022/03/05 04:48:38;;;;;;;38.25;17.00;;;-0.30;99.90;;;;;;5013913;28;20057;-49
2022/03/05 04:51:03;;;;;;;37.28;16.80;;;-0.30;99.90;;;;;;5013542;28;20117;-44
2022/03/05 04:53:29;;;;;;;38.08;17.48;;;-0.30;99.90;;;;;;5013151;28;20490;-44
2022/03/05 04:55:54;;;;;;;41.13;18.08;;;-0.40;99.90;;;;;;5013919;28;20548;-44
2022/03/05 04:58:20;;;;;;;39.63;17.88;;;-0.40;99.90;;;;;;5013856;28;20034;-45
2022/03/05 05:00:45;;;;;;;40.53;18.60;;;-0.40;99.90;;;;;;5013650;28;20033;-45
2022/03/05 05:03:11;;;;;;;32.25;16.70;;;-0.40;99.90;;;;;;5013239;28;20215;-43
2022/03/05 05:05:36;;;;;;;40.78;17.90;;;-0.50;99.90;;;;;;5013570;28;20076;-48
2022/03/05 05:08:02;;;;;;;40.90;17.85;;;-0.40;99.90;;;;;;5013543;28;20129;-47
2022/03/05 05:10:28;;;;;;;37.78;18.00;;;-0.50;99.90;;;;;;5013395;28;20128;-42
2022/03/05 05:12:53;;;;;;;41.70;19.55;;;-0.50;99.90;;;;;;5013010;28;20073;-44
2022/03/05 05:15:19;;;;;;;41.22;18.08;;;-0.50;99.90;;;;;;5012144;28;20025;-46
2022/03/05 05:17:44;;;;;;;39.63;18.38;;;-0.50;99.90;;;;;;5013321;28;20101;-43
2022/03/05 05:20:11;;;;;;;38.55;18.95;;;-0.50;99.90;;;;;;5013197;28;20121;-48
2022/03/05 05:22:37;;;;;;;31.63;16.30;;;-0.50;99.90;;;;;;5013258;28;20053;-44
2022/03/05 05:25:03;;;;;;;49.60;19.58;;;-0.50;99.90;;;;;;5011611;28;20041;-46
2022/03/05 05:27:33;;;;;;;37.80;17.83;;;-0.60;99.90;;;;;;5013221;28;20490;-44
2022/03/05 05:29:59;;;;;;;38.83;18.13;;;-0.60;99.90;;;;;;5013160;28;20030;-44
2022/03/05 05:32:24;;;;;;;42.58;19.40;;;-0.60;99.90;;;;;;5013045;28;20022;-45
2022/03/05 05:34:50;;;;;;;37.60;18.77;;;-0.50;99.90;;;;;;5012822;28;20026;-45
2022/03/05 05:37:16;;;;;;;41.78;17.42;;;-0.50;99.90;;;;;;5013031;28;20025;-47
2022/03/05 05:39:42;;;;;;;44.83;19.33;;;-0.60;99.90;;;;;;5013082;28;20025;-46
2022/03/05 05:42:07;;;;;;;41.05;18.60;;;-0.50;99.90;;;;;;5012707;28;20025;-48
2022/03/05 05:44:33;;;;;;;45.28;19.92;;;-0.50;99.90;;;;;;5012672;28;20555;-46
2022/03/05 05:46:59;;;;;;;44.92;19.77;;;-0.50;99.90;;;;;;5012818;28;20057;-47
2022/03/05 05:49:24;;;;;;;41.42;17.30;;;-0.50;99.90;;;;;;5012667;28;20022;-44
2022/03/05 05:51:50;;;;;;;42.83;19.75;;;-0.50;99.90;;;;;;5013123;28;20022;-45
2022/03/05 05:54:15;;;;;;;43.63;19.80;;;-0.50;99.90;;;;;;5012046;28;20041;-47
2022/03/05 05:56:41;;;;;;;46.83;19.42;;;-0.50;99.90;;;;;;5012791;28;20026;-47
2022/03/05 05:59:06;;;;;;;47.30;20.65;;;-0.50;99.90;;;;;;5013232;28;20548;-43
2022/03/05 06:01:32;;;;;;;43.47;19.40;;;-0.50;99.90;;;;;;5012567;28;20122;-48
2022/03/05 06:03:58;;;;;;;43.00;19.60;;;-0.50;99.90;;;;;;5012083;28;20049;-46
2022/03/05 06:06:23;;;;;;;43.33;20.48;;;-0.50;99.90;;;;;;5012699;28;20022;-42
2022/03/05 06:08:50;;;;;;;47.30;19.50;;;-0.50;99.90;;;;;;5012945;28;20022;-43
2022/03/05 06:11:16;;;;;;;44.85;22.63;;;-0.50;99.90;;;;;;5012705;28;20022;-44
2022/03/05 06:13:42;;;;;;;47.17;19.90;;;-0.50;99.90;;;;;;5012552;28;20028;-44
2022/03/05 06:16:08;;;;;;;42.95;20.77;;;-0.60;99.90;;;;;;5012921;28;20445;-44
2022/03/05 06:18:34;;;;;;;43.65;19.60;;;-0.50;99.90;;;;;;5013092;28;20540;-45
2022/03/05 06:21:00;;;;;;;44.25;20.15;;;-0.50;99.90;;;;;;5012816;28;20026;-44
2022/03/05 06:23:26;;;;;;;43.47;19.25;;;-0.50;99.90;;;;;;5012570;28;20026;-44
2022/03/05 06:25:52;;;;;;;44.90;19.27;;;-0.50;99.90;;;;;;5012723;28;20080;-45
2022/03/05 06:28:18;;;;;;;37.15;17.90;;;-0.50;99.90;;;;;;5011372;28;20017;-44
2022/03/05 06:30:44;;;;;;;38.38;18.52;;;-0.50;99.90;;;;;;5012578;28;20092;-45
2022/03/05 06:33:09;;;;;;;40.22;18.35;;;-0.50;99.90;;;;;;5012781;28;20030;-46
2022/03/05 06:35:35;;;;;;;42.22;19.42;;;-0.40;99.90;;;;;;5011425;28;20520;-46
2022/03/05 06:38:01;;;;;;;38.15;19.27;;;-0.30;99.90;;;;;;5012812;28;20053;-45
2022/03/05 06:40:26;;;;;;;40.67;19.15;;;-0.30;99.90;;;;;;5012855;28;20026;-44
2022/03/05 06:42:52;;;;;;;41.33;18.40;;;-0.20;99.90;;;;;;5012353;28;20061;-48
2022/03/05 06:45:17;;;;;;;39.13;18.73;;;-0.10;99.90;;;;;;5034440;23;20132;-49
2022/03/05 06:47:43;;;;;;;42.63;19.42;;;-0.10;99.90;;;;;;5012055;28;20033;-46
2022/03/05 06:50:10;;;;;;;39.53;19.08;;;0.10;99.90;;;;;;5011785;28;20022;-39
2022/03/05 06:52:36;;;;;;;36.05;18.70;;;0.20;99.90;;;;;;5011863;28;20030;-46
2022/03/05 06:55:03;;;;;;;42.42;20.15;;;0.20;99.90;;;;;;5011329;28;20056;-42
2022/03/05 06:57:29;;;;;;;36.83;18.33;;;0.20;99.90;;;;;;5011763;28;20030;-48
2022/03/05 06:59:55;;;;;;;38.65;20.08;;;0.30;99.90;;;;;;5012102;28;20505;-45
2022/03/05 07:02:21;;;;;;;37.05;18.33;;;0.30;99.90;;;;;;5011800;28;20033;-43
2022/03/05 07:04:46;;;;;;;36.60;17.75;;;0.50;99.90;;;;;;5011447;28;20026;-46
2022/03/05 07:07:12;;;;;;;35.13;17.40;;;0.70;99.90;;;;;;5010312;28;20069;-45
2022/03/05 07:09:38;;;;;;;40.60;19.40;;;1.30;99.90;;;;;;5011692;28;20022;-45
2022/03/05 07:12:05;;;;;;;36.15;18.33;;;1.50;99.90;;;;;;5012326;28;20018;-51
2022/03/05 07:14:31;;;;;;;33.67;19.00;;;1.70;99.90;;;;;;5013844;28;20018;-46
2022/03/05 07:16:56;;;;;;;34.53;18.00;;;1.90;99.90;;;;;;5008754;28;20033;-47
2022/03/05 07:19:22;;;;;;;32.80;17.67;;;2.00;99.90;;;;;;5026221;28;20493;-41
2022/03/05 07:21:48;;;;;;;38.88;20.40;;;2.20;99.90;;;;;;5035469;28;20039;-50
2022/03/05 07:24:13;;;;;;;41.85;20.05;;;2.30;99.90;;;;;;5017853;28;20032;-46
2022/03/05 07:26:39;;;;;;;32.42;17.13;;;2.50;99.90;;;;;;5015484;28;20026;-45
2022/03/05 07:29:06;;;;;;;31.73;17.00;;;2.70;99.90;;;;;;5015091;28;20030;-45
2022/03/05 07:31:32;;;;;;;31.50;16.70;;;3.00;99.90;;;;;;5016514;28;20489;-47
2022/03/05 07:33:58;;;;;;;35.25;16.48;;;3.70;99.90;;;;;;5035015;28;20034;-46
2022/03/05 07:36:23;;;;;;;31.88;17.60;;;4.40;99.90;;;;;;5033861;28;20067;-43
2022/03/05 07:38:49;;;;;;;30.52;16.55;;;4.70;99.90;;;;;;5029249;28;20075;-49
2022/03/05 07:41:14;;;;;;;30.80;17.63;;;5.30;99.60;;;;;;5014799;28;20026;-48
2022/03/05 07:43:40;;;;;;;33.72;18.20;;;5.20;98.30;;;;;;5014300;28;20030;-50
2022/03/05 07:46:06;;;;;;;36.80;18.42;;;4.90;98.80;;;;;;5010245;28;20034;-43
2022/03/05 07:48:32;;;;;;;29.35;17.40;;;4.40;99.90;;;;;;5014665;28;20108;-43
2022/03/05 07:50:59;;;;;;;33.53;18.08;;;3.90;99.90;;;;;;5014325;28;20033;-44
2022/03/05 07:53:27;;;;;;;40.83;20.10;;;3.40;99.90;;;;;;5015313;28;20017;-47
2022/03/05 07:55:53;;;;;;;35.47;19.40;;;2.90;99.90;;;;;;5014812;28;20033;-45
2022/03/05 07:58:18;;;;;;;38.95;20.95;;;2.70;99.90;;;;;;5015073;28;20378;-46
2022/03/05 08:00:44;;;;;;;32.58;17.92;;;2.50;99.90;;;;;;5014858;28;20053;-45
2022/03/05 08:03:10;;;;;;;33.42;18.42;;;2.20;99.90;;;;;;5014932;28;20616;-50
2022/03/05 08:05:36;;;;;;;36.80;19.15;;;2.10;99.90;;;;;;5015177;28;20437;-46
2022/03/05 08:08:01;;;;;;;33.78;18.70;;;2.00;99.90;;;;;;5015847;28;20063;-43
2022/03/05 08:10:27;;;;;;;37.15;19.80;;;1.90;99.90;;;;;;5014949;28;20037;-48
2022/03/05 08:12:52;;;;;;;37.63;18.85;;;1.80;99.90;;;;;;5013246;28;20030;-44
2022/03/05 08:15:18;;;;;;;41.83;20.20;;;1.80;99.90;;;;;;5014702;28;20034;-48
2022/03/05 08:17:55;;;;;;;39.75;20.67;;;1.80;99.90;;;;;;5014709;28;20072;-44
2022/03/05 08:20:22;;;;;;;41.30;20.30;;;1.80;99.90;;;;;;5015107;28;20029;-45
2022/03/05 08:22:48;;;;;;;32.40;18.02;;;1.80;99.90;;;;;;5014624;28;20557;-45
2022/03/05 08:25:14;;;;;;;35.30;19.15;;;1.80;99.90;;;;;;5014200;28;20102;-45
2022/03/05 08:27:40;;;;;;;36.30;17.30;;;1.90;99.90;;;;;;5014247;28;20018;-47
2022/03/05 08:30:06;;;;;;;31.73;19.70;;;1.80;99.90;;;;;;5014524;28;20053;-46
2022/03/05 08:32:32;;;;;;;37.35;18.27;;;1.90;99.90;;;;;;5014247;28;20124;-48
2022/03/05 08:34:57;;;;;;;36.78;19.45;;;1.90;99.90;;;;;;5014591;28;20068;-44
2022/03/05 08:37:23;;;;;;;38.33;19.23;;;2.00;99.90;;;;;;5014426;28;20489;-44
2022/03/05 08:39:48;;;;;;;33.85;18.52;;;2.10;99.90;;;;;;5014394;28;20505;-47
2022/03/05 08:42:14;;;;;;;46.38;19.30;;;2.20;99.90;;;;;;5014650;28;20389;-45
2022/03/05 08:44:40;;;;;;;38.20;21.10;;;2.30;99.90;;;;;;5013922;28;20025;-47
2022/03/05 08:47:06;;;;;;;33.45;18.30;;;2.30;99.90;;;;;;5013908;28;20022;-45
2022/03/05 08:49:31;;;;;;;32.90;18.75;;;2.40;99.90;;;;;;5014209;28;20025;-46
2022/03/05 08:51:57;;;;;;;38.22;19.08;;;2.40;99.90;;;;;;5014300;28;20032;-45
2022/03/05 08:54:25;;;;;;;36.45;19.00;;;2.50;99.90;;;;;;5013766;28;20026;-45
2022/03/05 08:56:51;;;;;;;37.60;18.42;;;2.50;99.90;;;;;;5014262;28;20034;-48
2022/03/05 08:59:16;;;;;;;34.65;19.35;;;2.60;99.90;;;;;;5013918;28;20025;-47
2022/03/05 09:01:42;;;;;;;33.85;17.42;;;2.50;99.90;;;;;;5013851;28;20508;-45
2022/03/05 09:04:07;;;;;;;34.80;19.20;;;2.60;99.90;;;;;;5013884;28;20026;-46
2022/03/05 09:06:33;;;;;;;35.75;17.48;;;2.70;99.90;;;;;;5013305;28;20029;-45
2022/03/05 09:09:00;;;;;;;38.55;18.85;;;2.80;99.90;;;;;;5013946;28;20034;-46
2022/03/05 09:11:25;;;;;;;32.83;17.08;;;2.90;99.90;;;;;;5013503;28;20025;-45
2022/03/05 09:13:51;;;;;;;29.70;18.25;;;3.00;99.90;;;;;;5013578;28;20038;-46
2022/03/05 09:16:17;;;;;;;30.33;18.23;;;3.00;99.90;;;;;;5013965;28;20037;-44
2022/03/05 09:18:42;;;;;;;32.40;18.77;;;3.10;99.90;;;;;;5013721;28;20029;-45
2022/03/05 09:21:08;;;;;;;31.42;18.67;;;3.20;99.90;;;;;;5012844;28;20425;-46
2022/03/05 09:23:34;;;;;;;37.28;18.10;;;3.30;99.90;;;;;;5019501;28;20032;-46
2022/03/05 09:25:59;;;;;;;30.60;18.27;;;3.40;99.90;;;;;;5017646;28;20113;-48
2022/03/05 09:28:25;;;;;;;33.33;17.58;;;3.70;99.90;;;;;;5012837;28;20398;-52
2022/03/05 09:30:50;;;;;;;26.55;15.80;;;4.20;99.90;;;;;;5030004;28;20044;-45
2022/03/05 09:33:16;;;;;;;27.15;16.30;;;5.30;99.90;;;;;;5029443;28;20448;-45
2022/03/05 09:35:43;;;;;;;34.88;17.30;;;6.50;96.90;;;;;;5012311;28;20033;-45
2022/03/05 09:38:09;;;;;;;30.55;16.38;;;7.50;94.00;;;;;;5029551;28;20084;-45
2022/03/05 09:40:34;;;;;;;23.70;15.38;;;8.20;92.10;;;;;;5019970;28;20029;-46
2022/03/05 09:43:01;;;;;;;25.77;16.70;;;9.20;90.30;;;;;;5031442;28;20109;-48
2022/03/05 09:45:27;;;;;;;26.95;16.58;;;9.90;82.80;;;;;;5013920;28;20079;-46
2022/03/05 09:47:55;;;;;;;29.90;17.77;;;9.90;80.10;;;;;;5013358;28;20021;-45
2022/03/05 09:50:20;;;;;;;24.73;16.95;;;9.80;79.60;;;;;;5021968;28;20017;-45
2022/03/05 09:52:46;;;;;;;29.25;17.63;;;9.90;79.10;;;;;;5016002;28;20052;-42
2022/03/05 09:55:12;;;;;;;26.50;15.68;;;10.10;78.60;;;;;;5012593;28;20034;-45
2022/03/05 09:57:38;;;;;;;32.55;16.10;;;10.60;77.40;;;;;;5013161;28;20037;-41
2022/03/05 10:00:05;;;;;;;21.23;14.35;;;10.80;75.00;;;;;;5011813;28;20168;-43
2022/03/05 10:02:30;;;;;;;21.60;15.13;;;11.10;72.80;;;;;;5028756;28;20497;-43
2022/03/05 10:05:12;;;;;;;19.20;13.88;;;11.10;71.90;;;;;;5013261;28;20042;-46
2022/03/05 10:07:38;;;;;;;26.30;16.83;;;10.70;71.90;;;;;;5027986;28;20095;-45
2022/03/05 10:10:08;;;;;;;25.25;15.15;;;10.70;72.10;;;;;;5031006;28;20137;-44
2022/03/05 10:12:34;;;;;;;22.08;14.93;;;10.30;72.50;;;;;;5012455;28;20025;-44
2022/03/05 10:15:05;;;;;;;19.30;13.38;;;10.00;73.00;;;;;;5012191;28;20037;-46
2022/03/05 10:17:58;;;;;;;21.60;14.27;;;9.60;73.90;;;;;;5012742;28;20022;-44
2022/03/05 10:20:29;;;;;;;22.65;14.45;;;9.40;73.60;;;;;;5012433;28;20397;-46
2022/03/05 10:22:58;;;;;;;20.02;14.32;;;9.40;73.10;;;;;;5020386;28;20029;-49
2022/03/05 10:25:37;;;;;;;25.50;15.32;;;9.50;73.80;;;;;;5032288;28;20029;-52
2022/03/05 10:28:06;;;;;;;25.45;14.60;;;9.40;73.90;;;;;;5012898;28;20073;-44
2022/03/05 10:30:35;;;;;;;24.27;14.75;;;9.10;75.00;;;;;;5012279;28;20389;-48
2022/03/05 10:33:00;;;;;;;26.65;15.30;;;9.00;74.70;;;;;;5012321;28;20429;-50
2022/03/05 10:35:26;;;;;;;28.98;15.52;;;8.90;75.20;;;;;;5012483;28;20029;-48
2022/03/05 10:37:53;;;;;;;21.42;14.50;;;8.80;75.60;;;;;;5011681;28;20037;-44
2022/03/05 10:40:26;;;;;;;24.35;16.27;;;8.80;77.10;;;;;;5010897;28;20104;-50
2022/03/05 10:42:51;;;;;;;24.65;15.48;;;8.70;76.70;;;;;;5009476;28;20041;-56
2022/03/05 10:45:18;;;;;;;28.17;16.08;;;8.40;77.30;;;;;;5009712;28;20041;-44
2022/03/05 10:47:46;;;;;;;24.98;15.35;;;8.20;78.90;;;;;;5012840;28;20409;-46
2022/03/05 10:50:14;;;;;;;24.35;15.35;;;8.10;79.30;;;;;;5012165;28;20109;-46
2022/03/05 10:52:48;;;;;;;22.23;15.07;;;8.30;79.50;;;;;;5011402;28;20058;-45
2022/03/05 10:55:25;;;;;;;26.15;15.15;;;8.40;79.10;;;;;;5012162;28;20137;-44
2022/03/05 10:58:01;;;;;;;22.52;13.98;;;8.30;79.80;;;;;;5030637;28;20401;-44
2022/03/05 11:00:27;;;;;;;23.88;14.25;;;8.20;79.00;;;;;;5032056;28;20025;-50
2022/03/05 11:02:55;;;;;;;24.02;15.45;;;7.90;80.10;;;;;;5032834;28;20489;-45
2022/03/05 11:05:21;;;;;;;24.70;15.00;;;7.80;81.30;;;;;;5012188;28;20575;-45
2022/03/05 11:07:49;;;;;;;25.02;14.65;;;8.00;81.30;;;;;;5016024;28;20022;-46
2022/03/05 11:10:16;;;;;;;26.98;16.17;;;8.00;80.90;;;;;;5025597;28;20481;-44
2022/03/05 11:12:46;;;;;;;23.52;14.57;;;8.20;79.80;;;;;;5019682;28;20030;-48
2022/03/05 11:15:11;;;;;;;21.85;13.40;;;8.20;79.20;;;;;;5010173;28;20367;-53
2022/03/05 11:17:38;;;;;;;27.65;14.98;;;8.30;77.80;;;;;;5012949;28;20025;-51
2022/03/05 11:20:04;;;;;;;19.80;13.85;;;8.20;77.70;;;;;;5031544;28;20033;-47
2022/03/05 11:22:31;;;;;;;19.95;13.07;;;7.90;77.60;;;;;;5028595;28;20021;-44
2022/03/05 11:24:57;;;;;;;21.92;13.60;;;7.60;78.40;;;;;;5015177;28;20025;-46
2022/03/05 11:27:23;;;;;;;21.75;13.45;;;7.50;79.60;;;;;;5010935;28;20398;-47
2022/03/05 11:29:58;;;;;;;21.48;13.32;;;7.50;78.40;;;;;;5010087;28;20057;-44
2022/03/05 11:32:31;;;;;;;20.93;12.90;;;7.40;79.40;;;;;;5011658;28;20026;-47
2022/03/05 11:34:57;;;;;;;19.75;13.38;;;7.50;77.00;;;;;;5010857;28;20026;-45
2022/03/05 11:37:37;;;;;;;16.23;10.75;;;7.30;75.20;;;;;;5011710;28;20033;-45
2022/03/05 11:40:06;;;;;;;17.92;11.98;;;7.20;74.80;;;;;;5011659;28;20037;-44
2022/03/05 11:42:37;;;;;;;21.67;12.88;;;7.30;76.10;;;;;;5011206;28;20054;-43
2022/03/05 11:45:30;;;;;;;18.52;12.23;;;7.40;76.90;;;;;;5011518;28;20053;-48
2022/03/05 11:48:22;;;;;;;19.23;10.15;;;7.40;75.70;;;;;;5011405;28;20041;-47
2022/03/05 11:51:12;;;;;;;14.13;9.68;;;7.30;73.30;;;;;;5012898;28;20025;-48
2022/03/05 11:53:37;;;;;;;13.35;8.85;;;7.30;69.90;;;;;;5004114;28;20113;-48
2022/03/05 11:56:23;;;;;;;14.00;8.73;;;7.40;70.30;;;;;;5011963;28;20050;-45
2022/03/05 11:58:49;;;;;;;12.60;8.02;;;7.50;70.90;;;;;;5012059;28;20038;-46
2022/03/05 12:01:37;;;;;;;11.98;7.32;;;7.60;67.30;;;;;;5012463;28;20091;-47
2022/03/05 12:04:22;;;;;;;11.27;7.00;;;7.40;66.70;;;;;;5013285;28;20490;-47
2022/03/05 12:06:51;;;;;;;11.23;6.90;;;7.30;65.50;;;;;;5015101;28;20034;-46
2022/03/05 12:09:36;;;;;;;10.57;8.02;;;7.20;66.10;;;;;;5014796;28;20021;-48
2022/03/05 12:12:04;;;;;;;9.90;6.47;;;7.10;65.80;;;;;;5015007;28;20022;-44
2022/03/05 12:15:12;;;;;;;11.02;7.20;;;7.10;65.50;;;;;;5014668;28;20263;-45
2022/03/05 12:17:45;;;;;;;11.60;7.15;;;7.10;66.40;;;;;;5009862;28;20088;-42
2022/03/05 12:20:16;;;;;;;8.88;6.22;;;7.10;66.30;;;;;;5014870;28;20112;-45
2022/03/05 12:22:50;;;;;;;13.73;8.23;;;7.10;66.40;;;;;;5014775;28;20022;-42
2022/03/05 12:25:17;;;;;;;14.55;6.75;;;7.10;65.90;;;;;;5014849;28;20318;-45
2022/03/05 12:27:50;;;;;;;10.13;6.60;;;7.20;66.00;;;;;;5015057;28;20025;-45
2022/03/05 12:30:16;;;;;;;10.77;6.75;;;7.30;65.70;;;;;;5014940;28;20025;-49
2022/03/05 12:32:44;;;;;;;10.27;6.50;;;7.30;65.00;;;;;;5014657;28;20086;-42
2022/03/05 12:35:11;;;;;;;13.02;7.93;;;7.40;64.20;;;;;;5014650;28;20025;-43
2022/03/05 12:37:36;;;;;;;12.48;7.85;;;7.40;65.50;;;;;;5014871;28;20394;-47